Time;durP1;ratioP1;P1;durP2;ratioP2;P2;SDS_P1;SDS_P2;PMS_P1;PMS_P2;Temp;Humidity;BMP_temperature;BMP_pressure;BME280_temperature;BME280_humidity;BME280_pressure;Samples;Min_cycle;Max_cycle;Signal;HPM_P1;HPM_P2
2021/09/23 00:00:42;;;;;;;11.83;7.73;;;11.00;99.90;;;;;;4165582;28;20221;-81
2021/09/23 00:03:00;;;;;;;11.27;7.27;;;11.00;99.90;;;;;;4154595;28;20232;-81
2021/09/23 00:05:02;;;;;;;12.93;8.03;;;10.90;99.90;;;;;;4150007;28;20299;-81
2021/09/23 00:07:04;;;;;;;15.47;8.83;;;10.90;99.90;;;;;;4150121;28;20267;-81
2021/09/23 00:09:07;;;;;;;12.77;9.07;;;10.90;99.90;;;;;;4150295;28;20210;-81
2021/09/23 00:11:09;;;;;;;16.53;8.70;;;10.90;99.90;;;;;;4150389;28;20673;-81
2021/09/23 00:13:11;;;;;;;13.87;8.73;;;10.90;99.90;;;;;;4150537;28;20218;-81
2021/09/23 00:15:15;;;;;;;13.70;8.97;;;10.90;99.90;;;;;;4151199;28;20228;-80
2021/09/23 00:17:16;;;;;;;12.87;8.77;;;10.80;99.90;;;;;;4150789;28;20221;-81
2021/09/23 00:19:20;;;;;;;16.30;8.80;;;10.80;99.90;;;;;;4151186;28;20212;-81
2021/09/23 00:21:21;;;;;;;14.13;8.23;;;10.80;99.90;;;;;;4152855;28;20318;-81
2021/09/23 00:23:23;;;;;;;12.37;8.03;;;10.80;99.90;;;;;;4168312;28;20208;-81
2021/09/23 00:25:25;;;;;;;11.70;7.93;;;10.80;99.90;;;;;;4168494;28;20223;-81
2021/09/23 00:27:27;;;;;;;12.90;7.90;;;10.70;99.90;;;;;;4167284;28;20262;-81
2021/09/23 00:29:29;;;;;;;12.90;7.83;;;10.70;99.90;;;;;;4148224;28;20282;-81
2021/09/23 00:31:31;;;;;;;12.07;7.80;;;10.70;99.90;;;;;;4149705;28;20719;-81
2021/09/23 00:33:32;;;;;;;12.77;7.93;;;10.70;99.90;;;;;;4162920;28;20688;-81
2021/09/23 00:35:35;;;;;;;14.17;7.43;;;10.70;99.90;;;;;;4168582;28;20270;-81
2021/09/23 00:37:37;;;;;;;13.33;7.37;;;10.70;99.90;;;;;;4169203;28;20683;-81
2021/09/23 00:39:40;;;;;;;13.43;7.50;;;10.70;99.90;;;;;;4166095;28;20215;-81
2021/09/23 00:41:42;;;;;;;12.40;7.40;;;10.70;99.90;;;;;;4169686;28;20242;-80
2021/09/23 00:43:44;;;;;;;12.80;8.40;;;10.70;99.90;;;;;;4169657;28;20211;-81
2021/09/23 00:45:46;;;;;;;13.87;8.03;;;10.70;99.90;;;;;;4169622;28;20230;-80
2021/09/23 00:47:48;;;;;;;14.47;8.30;;;10.70;99.90;;;;;;4167489;28;20220;-81
2021/09/23 00:49:50;;;;;;;13.93;8.07;;;10.70;99.90;;;;;;4168142;28;20212;-81
2021/09/23 00:51:53;;;;;;;11.60;7.73;;;10.60;99.90;;;;;;4169522;28;20618;-81
2021/09/23 00:53:57;;;;;;;13.20;7.90;;;10.60;99.90;;;;;;4168160;28;20207;-81
2021/09/23 00:55:59;;;;;;;13.23;7.53;;;10.60;99.90;;;;;;4159324;28;20215;-81
2021/09/23 00:58:00;;;;;;;13.53;8.23;;;10.60;99.90;;;;;;4150838;28;20212;-81
2021/09/23 01:00:04;;;;;;;12.97;8.17;;;10.60;99.90;;;;;;4150224;28;20251;-81
2021/09/23 01:02:06;;;;;;;13.00;7.87;;;10.50;99.90;;;;;;4151122;28;20236;-81
2021/09/23 01:04:08;;;;;;;12.43;8.00;;;10.50;99.90;;;;;;4151434;28;20215;-81
2021/09/23 01:06:10;;;;;;;12.00;7.63;;;10.50;99.90;;;;;;4151537;28;20278;-81
2021/09/23 01:08:13;;;;;;;11.73;7.63;;;10.40;99.90;;;;;;4163036;28;20220;-81
2021/09/23 01:10:16;;;;;;;12.23;7.80;;;10.40;99.90;;;;;;4166234;28;20212;-81
2021/09/23 01:12:19;;;;;;;12.97;8.17;;;10.40;99.90;;;;;;4166739;28;20285;-81
2021/09/23 01:14:21;;;;;;;11.27;7.73;;;10.30;99.90;;;;;;4167098;28;20694;-81
2021/09/23 01:16:23;;;;;;;13.27;7.80;;;10.30;99.90;;;;;;4151631;28;20212;-80
2021/09/23 01:18:25;;;;;;;11.80;7.80;;;10.30;99.90;;;;;;4151429;28;20244;-81
2021/09/23 01:20:27;;;;;;;14.13;7.90;;;10.30;99.90;;;;;;4150531;28;20274;-81
2021/09/23 01:22:30;;;;;;;14.10;8.20;;;10.30;99.90;;;;;;4160762;28;20236;-81
2021/09/23 01:24:32;;;;;;;11.93;7.90;;;10.20;99.90;;;;;;4152362;28;20737;-81
2021/09/23 01:26:33;;;;;;;14.17;8.10;;;10.20;99.90;;;;;;4152034;28;20215;-81
2021/09/23 01:28:35;;;;;;;14.13;7.97;;;10.20;99.90;;;;;;4151526;28;20204;-81
2021/09/23 01:30:37;;;;;;;13.17;8.50;;;10.20;99.90;;;;;;4149781;28;20255;-80
2021/09/23 01:32:39;;;;;;;16.33;9.13;;;10.20;99.90;;;;;;4155365;28;20230;-81
2021/09/23 01:34:41;;;;;;;13.97;8.90;;;10.20;99.90;;;;;;4167013;28;20211;-81
2021/09/23 01:36:42;;;;;;;18.07;8.23;;;10.30;99.90;;;;;;4167042;28;20297;-81
2021/09/23 01:38:45;;;;;;;14.00;8.10;;;10.30;99.90;;;;;;4165906;28;20207;-81
2021/09/23 01:40:47;;;;;;;15.63;8.80;;;10.20;99.90;;;;;;4166133;28;20254;-81
2021/09/23 01:42:49;;;;;;;15.00;8.53;;;10.30;99.90;;;;;;4168992;28;20235;-81
2021/09/23 01:44:51;;;;;;;12.87;8.30;;;10.30;99.90;;;;;;4168775;28;20214;-81
2021/09/23 01:46:52;;;;;;;16.53;8.73;;;10.30;99.90;;;;;;4152808;28;20274;-81
2021/09/23 01:48:54;;;;;;;16.03;8.70;;;10.20;99.90;;;;;;4152663;28;20213;-81
2021/09/23 01:50:56;;;;;;;13.93;8.40;;;10.20;99.90;;;;;;4152706;28;20200;-81
2021/09/23 01:52:57;;;;;;;13.17;8.23;;;10.20;99.90;;;;;;4152666;28;20450;-80
2021/09/23 01:55:00;;;;;;;15.40;8.20;;;10.20;99.90;;;;;;4151775;28;20227;-81
2021/09/23 01:57:02;;;;;;;15.47;8.53;;;10.20;99.90;;;;;;4152740;28;20219;-81
2021/09/23 01:59:04;;;;;;;13.63;8.13;;;10.10;99.90;;;;;;4151813;28;20593;-81
2021/09/23 02:01:06;;;;;;;13.83;8.53;;;10.10;99.90;;;;;;4151615;28;20670;-81
2021/09/23 02:03:07;;;;;;;16.40;8.73;;;10.10;99.90;;;;;;4151917;28;20298;-81
2021/09/23 02:05:10;;;;;;;13.07;8.37;;;10.10;99.90;;;;;;4153082;28;20222;-81
2021/09/23 02:07:12;;;;;;;15.07;8.30;;;10.10;99.90;;;;;;4152496;28;20278;-81
2021/09/23 02:09:14;;;;;;;15.77;8.67;;;10.10;99.90;;;;;;4152375;28;20204;-81
2021/09/23 02:11:17;;;;;;;13.43;8.27;;;10.10;99.90;;;;;;4152053;28;20317;-81
2021/09/23 02:13:19;;;;;;;14.10;8.70;;;10.10;99.90;;;;;;4153041;28;20212;-81
2021/09/23 02:15:20;;;;;;;16.03;8.60;;;10.00;99.90;;;;;;4152904;28;20215;-81
2021/09/23 02:17:22;;;;;;;14.77;9.20;;;10.00;99.90;;;;;;4153226;28;20216;-81
2021/09/23 02:19:25;;;;;;;13.97;8.50;;;10.10;99.90;;;;;;4158288;28;20219;-80
2021/09/23 02:21:26;;;;;;;15.60;8.90;;;10.10;99.90;;;;;;4166991;28;20238;-81
2021/09/23 02:23:28;;;;;;;12.20;8.40;;;10.00;99.90;;;;;;4164672;28;20207;-81
2021/09/23 02:25:30;;;;;;;14.23;8.67;;;10.00;99.90;;;;;;4166716;28;20615;-81
2021/09/23 02:27:33;;;;;;;14.67;8.77;;;10.00;99.90;;;;;;4166048;28;20474;-80
2021/09/23 02:29:35;;;;;;;13.63;9.03;;;10.00;99.90;;;;;;4155628;28;20333;-81
2021/09/23 02:31:37;;;;;;;17.10;8.93;;;10.00;99.90;;;;;;4158007;28;20693;-81
2021/09/23 02:33:38;;;;;;;16.63;9.30;;;10.00;99.90;;;;;;4164118;28;20203;-81
2021/09/23 02:35:40;;;;;;;17.17;9.20;;;9.90;99.90;;;;;;4167560;28;20211;-80
2021/09/23 02:37:42;;;;;;;16.17;9.80;;;9.90;99.90;;;;;;4161135;28;21298;-80
2021/09/23 02:39:43;;;;;;;17.67;9.80;;;9.90;99.90;;;;;;4164564;28;20242;-80
2021/09/23 02:41:45;;;;;;;16.37;10.10;;;9.90;99.90;;;;;;4164759;28;20279;-80
2021/09/23 02:43:48;;;;;;;16.20;9.47;;;9.90;99.90;;;;;;4166084;28;20215;-80
2021/09/23 02:45:50;;;;;;;16.13;9.00;;;9.90;99.90;;;;;;4163747;28;21011;-80
2021/09/23 02:47:52;;;;;;;16.43;9.90;;;9.90;99.90;;;;;;4152859;28;20894;-80
2021/09/23 02:49:53;;;;;;;16.53;9.30;;;9.90;99.90;;;;;;4161391;28;20215;-80
2021/09/23 02:51:55;;;;;;;18.23;10.70;;;9.90;99.90;;;;;;4168439;28;20234;-80
2021/09/23 02:53:57;;;;;;;17.60;9.10;;;9.90;99.90;;;;;;4166317;28;20549;-80
2021/09/23 02:55:58;;;;;;;17.97;10.07;;;9.90;99.90;;;;;;4153053;28;20204;-80
2021/09/23 02:58:00;;;;;;;16.67;9.70;;;9.90;99.90;;;;;;4153114;28;20282;-80
2021/09/23 03:00:04;;;;;;;15.17;9.40;;;9.90;99.90;;;;;;4154329;28;20695;-80
2021/09/23 03:02:06;;;;;;;16.60;9.67;;;9.90;99.90;;;;;;4172467;28;20231;-80
2021/09/23 03:04:08;;;;;;;18.03;9.87;;;9.90;99.90;;;;;;4169446;28;20210;-80
2021/09/23 03:06:10;;;;;;;16.13;9.97;;;9.90;99.90;;;;;;4169935;28;20273;-80
2021/09/23 03:08:12;;;;;;;14.53;8.93;;;9.90;99.90;;;;;;4170926;28;20215;-80
2021/09/23 03:10:13;;;;;;;15.63;9.70;;;9.80;99.90;;;;;;4173058;28;20211;-80
2021/09/23 03:12:15;;;;;;;16.77;10.23;;;9.80;99.90;;;;;;4179330;28;20492;-80
2021/09/23 03:14:17;;;;;;;17.57;10.33;;;9.80;99.90;;;;;;4164731;28;20275;-80
2021/09/23 03:16:20;;;;;;;17.07;9.33;;;9.80;99.90;;;;;;4158015;28;20262;-80
2021/09/23 03:18:22;;;;;;;16.20;9.77;;;9.80;99.90;;;;;;4157922;28;20479;-80
2021/09/23 03:20:25;;;;;;;17.33;10.10;;;9.80;99.90;;;;;;4165003;28;20459;-80
2021/09/23 03:22:27;;;;;;;16.00;9.77;;;9.80;99.90;;;;;;4155888;28;20259;-80
2021/09/23 03:24:29;;;;;;;16.33;9.93;;;9.80;99.90;;;;;;4156024;28;20224;-80
2021/09/23 03:26:31;;;;;;;19.30;10.73;;;9.80;99.90;;;;;;4155935;28;20240;-80
2021/09/23 03:28:34;;;;;;;16.70;9.93;;;9.80;99.90;;;;;;4154145;28;20245;-81
2021/09/23 03:30:36;;;;;;;16.57;9.87;;;9.80;99.90;;;;;;4155013;28;20576;-80
2021/09/23 03:32:39;;;;;;;15.43;9.53;;;9.80;99.90;;;;;;4159155;28;20227;-80
2021/09/23 03:34:41;;;;;;;16.73;9.57;;;9.80;99.90;;;;;;4171734;28;20302;-80
2021/09/23 03:36:43;;;;;;;16.87;9.73;;;9.80;99.90;;;;;;4163954;28;20228;-80
2021/09/23 03:38:44;;;;;;;19.13;9.87;;;9.80;99.90;;;;;;4153462;28;20262;-80
2021/09/23 03:40:48;;;;;;;16.73;9.10;;;9.80;99.90;;;;;;4153671;28;20220;-80
2021/09/23 03:42:50;;;;;;;14.67;9.20;;;9.80;99.90;;;;;;4152769;28;20939;-80
2021/09/23 03:44:52;;;;;;;14.13;9.17;;;9.70;99.90;;;;;;4152971;28;20950;-81
2021/09/23 03:46:55;;;;;;;17.20;9.67;;;9.70;99.90;;;;;;4152857;28;20259;-80
2021/09/23 03:48:58;;;;;;;17.70;9.97;;;9.70;99.90;;;;;;4168217;28;20212;-80
2021/09/23 03:51:00;;;;;;;15.57;9.80;;;9.70;99.90;;;;;;4169056;28;20211;-80
2021/09/23 03:53:02;;;;;;;17.80;10.17;;;9.70;99.90;;;;;;4169234;28;20281;-81
2021/09/23 03:55:05;;;;;;;17.43;10.47;;;9.70;99.90;;;;;;4166460;28;20208;-80
2021/09/23 03:57:07;;;;;;;17.20;10.00;;;9.70;99.90;;;;;;4152478;28;20203;-80
2021/09/23 03:59:08;;;;;;;16.77;9.80;;;9.70;99.90;;;;;;4152641;28;20470;-81
2021/09/23 04:01:10;;;;;;;17.97;10.10;;;9.70;99.90;;;;;;4165557;28;20235;-80
2021/09/23 04:03:12;;;;;;;16.00;8.97;;;9.70;99.90;;;;;;4167992;28;20638;-81
2021/09/23 04:05:15;;;;;;;17.53;9.87;;;9.70;99.90;;;;;;4154254;28;20231;-80
2021/09/23 04:07:17;;;;;;;17.63;10.17;;;9.60;99.90;;;;;;4155736;28;21007;-80
2021/09/23 04:09:19;;;;;;;16.80;9.30;;;9.60;99.90;;;;;;4171163;28;20495;-80
2021/09/23 04:11:20;;;;;;;18.33;10.57;;;9.60;99.90;;;;;;4170319;28;20466;-80
2021/09/23 04:13:22;;;;;;;18.57;9.60;;;9.60;99.90;;;;;;4160853;28;20471;-79
2021/09/23 04:15:25;;;;;;;17.10;9.30;;;9.60;99.90;;;;;;4171303;28;20520;-80
2021/09/23 04:17:27;;;;;;;16.50;9.17;;;9.60;99.90;;;;;;4171839;28;20552;-80
2021/09/23 04:19:28;;;;;;;20.57;9.93;;;9.60;99.90;;;;;;4171963;28;20658;-79
2021/09/23 04:21:31;;;;;;;16.67;9.77;;;9.60;99.90;;;;;;4166578;28;20258;-80
2021/09/23 04:23:33;;;;;;;17.43;9.03;;;9.60;99.90;;;;;;4173077;28;20238;-80
2021/09/23 04:25:35;;;;;;;21.07;8.90;;;9.60;99.90;;;;;;4177482;28;20457;-80
2021/09/23 04:27:37;;;;;;;15.23;8.40;;;9.60;99.90;;;;;;4179834;28;20476;-80
2021/09/23 04:29:42;;;;;;;18.27;9.23;;;9.60;99.90;;;;;;4168426;28;20195;-79
2021/09/23 04:31:44;;;;;;;18.00;9.63;;;9.60;99.90;;;;;;4170661;28;20488;-79
2021/09/23 04:33:46;;;;;;;18.90;8.87;;;9.60;99.90;;;;;;4178757;28;20437;-79
2021/09/23 04:35:49;;;;;;;15.33;8.13;;;9.70;99.90;;;;;;4182302;28;20438;-79
2021/09/23 04:37:52;;;;;;;16.30;7.93;;;9.70;99.90;;;;;;4180474;28;20206;-80
2021/09/23 04:39:54;;;;;;;15.93;8.00;;;9.60;99.90;;;;;;4179621;28;20438;-79
2021/09/23 04:41:56;;;;;;;14.57;8.17;;;9.70;99.90;;;;;;4174996;28;20571;-80
2021/09/23 04:43:58;;;;;;;15.43;8.20;;;9.70;99.90;;;;;;4167023;28;20568;-79
2021/09/23 04:46:00;;;;;;;13.03;7.80;;;9.60;99.90;;;;;;4166761;28;20203;-83
2021/09/23 04:48:02;;;;;;;15.20;8.00;;;9.60;99.90;;;;;;4167479;28;20453;-80
2021/09/23 04:50:05;;;;;;;16.40;8.87;;;9.60;99.90;;;;;;4169076;28;20471;-81
2021/09/23 04:52:07;;;;;;;18.03;9.43;;;9.70;99.90;;;;;;4168326;28;20245;-81
2021/09/23 04:54:10;;;;;;;16.47;8.87;;;9.70;99.90;;;;;;4169428;28;20462;-81
2021/09/23 04:56:12;;;;;;;15.83;8.30;;;9.60;99.90;;;;;;4169093;28;20481;-81
2021/09/23 04:58:14;;;;;;;16.80;8.60;;;9.70;99.90;;;;;;4166553;28;20465;-80
2021/09/23 05:00:17;;;;;;;16.50;8.93;;;9.70;99.90;;;;;;4163401;28;20957;-81
2021/09/23 05:02:18;;;;;;;15.70;9.63;;;9.70;99.90;;;;;;4165972;28;21023;-80
2021/09/23 05:04:20;;;;;;;17.23;10.43;;;9.70;99.90;;;;;;4168210;28;20489;-80
2021/09/23 05:06:22;;;;;;;15.00;8.23;;;9.70;99.90;;;;;;4168708;28;20439;-80
2021/09/23 05:08:24;;;;;;;14.87;8.57;;;9.70;99.90;;;;;;4168489;28;20442;-81
2021/09/23 05:10:27;;;;;;;17.80;9.13;;;9.70;99.90;;;;;;4165522;28;20508;-81
2021/09/23 05:12:28;;;;;;;15.57;8.97;;;9.70;99.90;;;;;;4168084;28;20557;-81
2021/09/23 05:14:30;;;;;;;14.30;8.97;;;9.80;99.90;;;;;;4167244;28;20438;-81
2021/09/23 05:16:32;;;;;;;18.93;9.30;;;9.70;99.90;;;;;;4171926;28;20446;-80
2021/09/23 05:18:34;;;;;;;15.00;8.90;;;9.70;99.90;;;;;;4173527;28;20454;-80
2021/09/23 05:20:35;;;;;;;16.57;9.03;;;9.70;99.90;;;;;;4174785;28;20496;-80
2021/09/23 05:22:38;;;;;;;17.53;9.83;;;9.70;99.90;;;;;;4172153;28;20478;-80
2021/09/23 05:24:40;;;;;;;16.73;8.90;;;9.70;99.90;;;;;;4171662;28;20458;-79
2021/09/23 05:26:43;;;;;;;15.77;8.80;;;9.70;99.90;;;;;;4161062;28;20471;-80
2021/09/23 05:28:45;;;;;;;17.50;9.70;;;9.70;99.90;;;;;;4156465;28;20450;-80
2021/09/23 05:30:47;;;;;;;17.50;9.40;;;9.70;99.90;;;;;;4170310;28;20533;-81
2021/09/23 05:32:49;;;;;;;16.73;8.63;;;9.80;99.90;;;;;;4169760;28;20470;-81
2021/09/23 05:34:51;;;;;;;18.43;9.17;;;9.80;99.90;;;;;;4169556;28;20481;-80
2021/09/23 05:36:52;;;;;;;15.30;8.50;;;9.80;99.90;;;;;;4172267;28;20476;-81
2021/09/23 05:38:58;;;;;;;17.93;9.60;;;9.80;99.90;;;;;;4171312;28;20503;-81
2021/09/23 05:41:01;;;;;;;16.00;9.47;;;9.80;99.90;;;;;;4170467;28;20537;-80
2021/09/23 05:43:05;;;;;;;14.63;8.70;;;9.80;99.90;;;;;;4179108;22;20584;-77
2021/09/23 05:45:10;;;;;;;17.20;8.70;;;9.80;99.90;;;;;;4161960;28;20492;-77
2021/09/23 05:47:12;;;;;;;16.73;9.50;;;9.80;99.90;;;;;;4162214;28;20446;-78
2021/09/23 05:49:14;;;;;;;13.77;8.30;;;9.80;99.90;;;;;;4162723;28;20461;-78
2021/09/23 05:51:15;;;;;;;16.63;9.03;;;9.90;99.90;;;;;;4157279;28;20207;-77
2021/09/23 05:53:17;;;;;;;17.13;9.23;;;9.90;99.90;;;;;;4174542;28;20476;-78
2021/09/23 05:55:19;;;;;;;14.13;9.10;;;9.90;99.90;;;;;;4174895;28;20213;-77
2021/09/23 05:57:23;;;;;;;13.73;8.67;;;9.90;99.90;;;;;;4171835;28;20445;-77
2021/09/23 05:59:26;;;;;;;17.60;9.10;;;9.90;99.90;;;;;;4171792;28;20527;-76
2021/09/23 06:01:28;;;;;;;17.40;8.80;;;10.00;99.90;;;;;;4173548;28;20457;-77
2021/09/23 06:03:30;;;;;;;20.73;9.27;;;10.00;99.90;;;;;;4174963;28;20276;-77
2021/09/23 06:05:32;;;;;;;16.17;8.93;;;10.20;99.90;;;;;;4175180;28;20502;-77
2021/09/23 06:07:34;;;;;;;13.77;8.63;;;10.10;99.90;;;;;;4164711;28;20534;-77
2021/09/23 06:09:37;;;;;;;16.53;9.33;;;10.20;99.90;;;;;;4165597;28;20275;-77
2021/09/23 06:11:39;;;;;;;15.53;8.43;;;10.20;99.90;;;;;;4171749;28;20257;-77
2021/09/23 06:13:41;;;;;;;15.03;8.60;;;10.20;99.90;;;;;;4169472;28;20210;-77
2021/09/23 06:15:46;;;;;;;16.07;8.43;;;10.20;99.90;;;;;;4175766;28;20224;-77
2021/09/23 06:17:48;;;;;;;12.13;8.37;;;10.20;99.90;;;;;;4174301;28;20282;-77
2021/09/23 06:19:50;;;;;;;14.43;7.93;;;10.20;99.90;;;;;;4175128;28;20497;-77
2021/09/23 06:21:51;;;;;;;14.63;9.10;;;10.20;99.90;;;;;;4176708;28;20280;-77
2021/09/23 06:23:53;;;;;;;14.77;8.80;;;10.30;99.90;;;;;;4178109;28;20223;-77
2021/09/23 06:25:55;;;;;;;14.23;8.47;;;10.30;99.90;;;;;;4169481;28;20207;-77
2021/09/23 06:27:56;;;;;;;17.77;9.37;;;10.30;99.90;;;;;;4175397;28;20203;-78
2021/09/23 06:29:58;;;;;;;16.97;9.43;;;10.40;99.90;;;;;;4178020;28;20867;-77
2021/09/23 06:32:01;;;;;;;14.50;8.33;;;10.50;99.90;;;;;;4178032;28;20226;-77
2021/09/23 06:34:03;;;;;;;18.00;8.80;;;10.50;99.90;;;;;;4178114;28;20202;-77
2021/09/23 06:36:06;;;;;;;20.47;8.93;;;10.50;99.90;;;;;;4162160;28;20211;-77
2021/09/23 06:38:08;;;;;;;15.97;8.97;;;10.50;99.90;;;;;;4172201;28;20209;-77
2021/09/23 06:40:11;;;;;;;16.83;8.73;;;10.50;99.90;;;;;;4185274;28;20633;-77
2021/09/23 06:42:15;;;;;;;17.73;8.07;;;10.60;99.90;;;;;;4177525;28;20243;-77
2021/09/23 06:44:17;;;;;;;16.53;8.50;;;10.60;99.90;;;;;;4175867;28;20685;-77
2021/09/23 06:46:20;;;;;;;14.93;8.53;;;10.70;99.90;;;;;;4177805;28;20213;-77
2021/09/23 06:48:23;;;;;;;14.90;8.73;;;10.70;99.90;;;;;;4177930;28;20210;-77
2021/09/23 06:50:25;;;;;;;14.63;7.97;;;10.70;99.90;;;;;;4177818;28;20249;-77
2021/09/23 06:52:27;;;;;;;20.77;8.00;;;10.80;99.90;;;;;;4176128;28;20235;-77
2021/09/23 06:54:29;;;;;;;20.40;8.60;;;10.80;99.90;;;;;;4175140;28;20264;-77
2021/09/23 06:56:30;;;;;;;15.80;8.10;;;10.90;99.90;;;;;;4178759;28;20272;-77
2021/09/23 06:58:32;;;;;;;12.60;7.60;;;11.00;99.90;;;;;;4175079;28;20219;-77
2021/09/23 07:00:34;;;;;;;14.23;8.47;;;11.00;99.90;;;;;;4166362;28;20231;-77
2021/09/23 07:02:35;;;;;;;12.43;8.07;;;11.00;99.90;;;;;;4175586;28;20728;-77
2021/09/23 07:04:38;;;;;;;13.07;7.90;;;11.10;99.90;;;;;;4173535;28;20266;-77
2021/09/23 07:06:41;;;;;;;13.63;8.40;;;11.10;99.90;;;;;;4177765;28;20215;-77
2021/09/23 07:08:43;;;;;;;16.63;8.10;;;11.20;99.90;;;;;;4175217;28;20250;-77
2021/09/23 07:10:45;;;;;;;13.27;8.03;;;11.20;99.90;;;;;;4174422;28;20212;-77
2021/09/23 07:12:47;;;;;;;15.57;7.43;;;11.30;99.90;;;;;;4177383;28;20748;-77
2021/09/23 07:14:49;;;;;;;13.93;7.60;;;11.30;99.90;;;;;;4174684;28;20588;-77
2021/09/23 07:16:50;;;;;;;17.03;7.37;;;11.40;99.90;;;;;;4177591;28;20215;-77
2021/09/23 07:18:52;;;;;;;17.17;8.47;;;11.50;99.90;;;;;;4177552;28;20219;-77
2021/09/23 07:20:56;;;;;;;12.87;7.43;;;11.60;99.90;;;;;;4177445;28;20250;-77
2021/09/23 07:22:58;;;;;;;13.20;7.80;;;11.60;99.90;;;;;;4162744;28;20606;-77
2021/09/23 07:25:00;;;;;;;14.40;7.73;;;11.70;99.90;;;;;;4161398;28;20716;-77
2021/09/23 07:27:02;;;;;;;14.10;7.37;;;11.80;99.90;;;;;;4176660;28;20212;-77
2021/09/23 07:29:04;;;;;;;15.67;7.67;;;11.90;99.90;;;;;;4177557;28;20208;-78
2021/09/23 07:31:06;;;;;;;13.07;7.00;;;11.90;99.90;;;;;;4172346;28;20584;-77
2021/09/23 07:33:07;;;;;;;12.97;7.27;;;12.00;99.90;;;;;;4175993;28;20290;-77
2021/09/23 07:35:10;;;;;;;11.97;6.67;;;12.10;99.90;;;;;;4174947;28;20211;-77
2021/09/23 07:37:13;;;;;;;11.87;7.20;;;12.20;99.90;;;;;;4177187;28;20208;-77
2021/09/23 07:39:15;;;;;;;13.13;6.60;;;12.30;99.90;;;;;;4174682;28;20270;-77
2021/09/23 07:41:16;;;;;;;10.43;6.20;;;12.30;99.90;;;;;;4176918;28;20459;-77
2021/09/23 07:43:18;;;;;;;11.80;7.57;;;12.40;99.90;;;;;;4175895;28;20278;-77
2021/09/23 07:45:20;;;;;;;13.43;6.70;;;12.50;99.90;;;;;;4176546;28;20338;-77
2021/09/23 07:47:22;;;;;;;13.63;6.77;;;12.60;99.90;;;;;;4177198;28;21461;-77
2021/09/23 07:49:23;;;;;;;9.67;6.13;;;12.70;99.90;;;;;;4171706;28;20842;-78
2021/09/23 07:51:25;;;;;;;9.40;6.07;;;12.80;99.90;;;;;;4176759;28;20239;-78
2021/09/23 07:53:30;;;;;;;13.33;6.80;;;12.90;99.90;;;;;;4175126;28;20229;-77
2021/09/23 07:55:32;;;;;;;8.40;5.93;;;13.00;99.90;;;;;;4177115;28;20213;-78
2021/09/23 07:57:34;;;;;;;9.93;6.03;;;13.10;99.90;;;;;;4176758;28;20218;-77
2021/09/23 07:59:36;;;;;;;8.33;5.87;;;13.20;99.90;;;;;;4176672;28;20216;-78
2021/09/23 08:01:38;;;;;;;10.97;5.80;;;13.20;99.90;;;;;;4175094;28;20245;-77
2021/09/23 08:03:39;;;;;;;10.20;5.87;;;13.30;99.90;;;;;;4176792;28;20236;-77
2021/09/23 08:05:41;;;;;;;8.10;5.50;;;13.40;99.90;;;;;;4177004;28;20239;-78
2021/09/23 08:07:44;;;;;;;8.83;5.60;;;13.60;99.90;;;;;;4177195;28;20267;-77
2021/09/23 08:09:47;;;;;;;10.33;6.17;;;13.70;99.90;;;;;;4171587;28;21406;-78
2021/09/23 08:11:49;;;;;;;9.43;5.03;;;13.80;99.90;;;;;;4173329;28;20226;-77
2021/09/23 08:13:51;;;;;;;9.20;5.77;;;13.80;99.90;;;;;;4176763;28;20243;-77
2021/09/23 08:15:53;;;;;;;9.43;5.97;;;13.90;99.90;;;;;;4176830;28;20548;-77
2021/09/23 08:17:54;;;;;;;9.00;5.63;;;14.00;99.90;;;;;;4176396;28;20437;-77
2021/09/23 08:19:56;;;;;;;8.33;5.53;;;14.10;99.90;;;;;;4175782;28;20210;-78
2021/09/23 08:21:58;;;;;;;8.97;6.10;;;14.20;99.90;;;;;;4176408;28;20288;-77
2021/09/23 08:24:00;;;;;;;8.50;5.50;;;14.20;99.90;;;;;;4176388;28;20241;-78
2021/09/23 08:26:03;;;;;;;10.33;5.13;;;14.30;99.90;;;;;;4176217;28;20269;-78
2021/09/23 08:28:07;;;;;;;9.43;6.13;;;14.30;99.90;;;;;;4173821;28;20673;-78
2021/09/23 08:30:09;;;;;;;8.27;5.50;;;14.40;99.90;;;;;;4175011;28;20223;-77
2021/09/23 08:32:11;;;;;;;9.40;5.70;;;14.40;99.90;;;;;;4173458;28;20241;-77
2021/09/23 08:34:13;;;;;;;7.80;5.07;;;14.50;99.90;;;;;;4176722;28;20204;-77
2021/09/23 08:36:14;;;;;;;9.97;5.60;;;14.50;99.90;;;;;;4176338;28;20203;-78
2021/09/23 08:38:18;;;;;;;8.47;5.73;;;14.60;99.90;;;;;;4176714;28;20206;-78
2021/09/23 08:40:20;;;;;;;9.77;5.30;;;14.70;99.90;;;;;;4177625;28;20294;-78
2021/09/23 08:42:23;;;;;;;7.83;5.70;;;14.80;99.90;;;;;;4171897;28;20691;-77
2021/09/23 08:44:25;;;;;;;8.00;4.87;;;14.90;99.90;;;;;;4178733;28;20281;-77
2021/09/23 08:46:31;;;;;;;9.30;5.80;;;14.90;99.90;;;;;;4178092;28;20211;-77
2021/09/23 08:48:34;;;;;;;9.33;5.60;;;15.00;99.90;;;;;;4174714;28;20735;-78
2021/09/23 08:50:36;;;;;;;8.33;5.40;;;15.10;99.90;;;;;;4175648;28;20215;-78
2021/09/23 08:52:38;;;;;;;8.70;5.20;;;15.10;99.90;;;;;;4174533;28;20237;-78
2021/09/23 08:54:40;;;;;;;8.67;5.00;;;15.20;99.90;;;;;;4175871;28;20211;-78
2021/09/23 08:56:41;;;;;;;6.60;4.37;;;15.20;99.90;;;;;;4176130;28;20674;-78
2021/09/23 08:58:44;;;;;;;9.03;4.87;;;15.30;99.90;;;;;;4175677;28;20675;-78
2021/09/23 09:01:02;;;;;;;7.93;4.43;;;15.40;99.90;;;;;;4170646;28;20217;-78
2021/09/23 09:03:06;;;;;;;5.70;4.00;;;15.40;99.90;;;;;;4176338;28;20237;-78
2021/09/23 09:05:16;;;;;;;5.40;4.20;;;15.50;99.90;;;;;;4176229;28;20478;-78
2021/09/23 09:07:25;;;;;;;6.70;4.07;;;15.50;99.90;;;;;;4176332;28;20252;-78
2021/09/23 09:09:27;;;;;;;7.33;4.40;;;15.50;99.90;;;;;;4162461;28;20217;-78
2021/09/23 09:11:30;;;;;;;7.97;4.23;;;15.60;99.90;;;;;;4161994;28;20755;-77
2021/09/23 09:13:33;;;;;;;7.93;4.13;;;15.70;99.90;;;;;;4159973;28;20288;-77
2021/09/23 09:15:38;;;;;;;6.37;4.37;;;15.70;99.90;;;;;;4164610;28;20237;-77
2021/09/23 09:17:40;;;;;;;8.43;4.83;;;15.90;99.90;;;;;;4175770;28;20207;-76
2021/09/23 09:19:43;;;;;;;6.63;3.90;;;16.00;99.90;;;;;;4169192;28;20217;-76
2021/09/23 09:21:47;;;;;;;6.57;3.90;;;16.10;99.90;;;;;;4158951;28;20235;-76
2021/09/23 09:23:52;;;;;;;6.20;4.10;;;16.10;99.90;;;;;;4173106;28;20680;-76
2021/09/23 09:25:54;;;;;;;13.00;4.67;;;16.30;99.90;;;;;;4175515;28;20230;-76
2021/09/23 09:27:58;;;;;;;6.10;4.23;;;16.30;99.90;;;;;;4175733;28;20250;-76
2021/09/23 09:30:02;;;;;;;6.90;4.83;;;16.40;99.90;;;;;;4171401;28;20211;-76
2021/09/23 09:32:05;;;;;;;8.20;4.23;;;16.50;99.90;;;;;;4175612;28;20569;-76
2021/09/23 09:34:07;;;;;;;7.67;3.57;;;16.60;99.90;;;;;;4172369;28;20681;-77
2021/09/23 09:36:26;;;;;;;6.87;3.80;;;16.60;99.90;;;;;;4175458;28;20222;-77
2021/09/23 09:38:27;;;;;;;9.10;3.83;;;16.60;99.90;;;;;;4172245;28;20222;-77
2021/09/23 09:40:34;;;;;;;5.10;3.43;;;16.70;99.90;;;;;;4175514;28;20218;-78
2021/09/23 09:42:36;;;;;;;5.07;3.27;;;16.80;99.90;;;;;;4173819;28;20238;-77
2021/09/23 09:44:38;;;;;;;4.13;3.00;;;16.80;99.90;;;;;;4175555;28;20314;-77
2021/09/23 09:46:42;;;;;;;4.93;3.40;;;16.80;99.90;;;;;;4174467;28;20210;-77
2021/09/23 09:48:45;;;;;;;4.17;3.00;;;16.80;99.90;;;;;;4175207;28;20211;-77
2021/09/23 09:50:47;;;;;;;4.90;3.07;;;16.80;99.90;;;;;;4175713;28;21067;-76
2021/09/23 09:52:50;;;;;;;8.70;3.37;;;16.90;99.90;;;;;;4172548;28;20230;-76
2021/09/23 09:55:00;;;;;;;4.90;2.87;;;17.00;99.90;;;;;;4175547;28;20214;-77
2021/09/23 09:57:06;;;;;;;3.70;2.70;;;17.10;99.90;;;;;;4174529;28;20214;-76
2021/09/23 09:59:13;;;;;;;3.90;2.70;;;17.20;99.90;;;;;;4175388;28;20203;-77
2021/09/23 10:01:15;;;;;;;3.90;2.83;;;17.20;99.90;;;;;;4173893;28;20586;-76
2021/09/23 10:03:19;;;;;;;6.10;3.10;;;17.30;99.90;;;;;;4178767;28;20230;-79
2021/09/23 10:05:23;;;;;;;4.83;2.63;;;17.40;99.90;;;;;;4178258;28;20258;-78
2021/09/23 10:07:26;;;;;;;5.10;2.80;;;17.50;99.90;;;;;;4178476;28;20269;-76
2021/09/23 10:09:32;;;;;;;4.97;2.50;;;17.60;99.90;;;;;;4177927;28;20214;-78
2021/09/23 10:11:36;;;;;;;4.93;3.10;;;17.70;99.90;;;;;;4178624;28;20294;-79
2021/09/23 10:13:38;;;;;;;6.60;3.73;;;17.90;99.90;;;;;;4175825;28;20214;-78
2021/09/23 10:15:40;;;;;;;5.77;3.20;;;18.00;98.90;;;;;;4179812;28;20200;-78
2021/09/23 10:17:43;;;;;;;5.90;2.90;;;18.00;97.50;;;;;;4179297;28;20586;-77
2021/09/23 10:19:45;;;;;;;3.37;2.50;;;18.00;97.40;;;;;;4178737;28;20208;-78
2021/09/23 10:21:48;;;;;;;7.37;2.90;;;18.00;96.60;;;;;;4178432;28;20230;-77
2021/09/23 10:23:51;;;;;;;6.87;2.80;;;18.10;97.40;;;;;;4179001;28;20211;-79
2021/09/23 10:25:53;;;;;;;3.70;2.43;;;18.10;96.60;;;;;;4178073;28;20227;-78
2021/09/23 10:27:58;;;;;;;8.17;2.70;;;18.20;95.40;;;;;;4175722;28;20210;-77
2021/09/23 10:30:00;;;;;;;3.77;2.47;;;18.20;94.70;;;;;;4176179;28;20306;-78
2021/09/23 10:32:02;;;;;;;3.27;2.30;;;18.30;94.10;;;;;;4178002;28;20231;-78
2021/09/23 10:34:06;;;;;;;4.20;2.40;;;18.40;92.70;;;;;;4177132;28;20357;-77